createdAt,value
2018-05-03T00:00:48.321Z,15.20
2018-05-03T00:03:18.461Z,15.20
2018-05-03T00:05:48.485Z,15.80
2018-05-03T00:08:18.721Z,15.53
2018-05-03T00:10:48.974Z,15.93
2018-05-03T00:13:19.323Z,16.57
2018-05-03T00:15:49.875Z,15.83
2018-05-03T00:18:20.035Z,15.10
2018-05-03T00:20:49.811Z,15.57
2018-05-03T00:23:20.747Z,15.87
2018-05-03T00:25:51.004Z,16.33
2018-05-03T00:28:21.941Z,16.20
2018-05-03T00:30:52.400Z,16.17
2018-05-03T00:33:23.314Z,16.07
2018-05-03T00:35:53.773Z,16.23
2018-05-03T00:38:23.843Z,15.07
2018-05-03T00:40:54.147Z,17.10
2018-05-03T00:43:23.908Z,16.07
2018-05-03T00:45:54.225Z,15.70
2018-05-03T00:48:24.388Z,16.13
2018-05-03T00:50:54.288Z,15.93
2018-05-03T00:53:24.227Z,18.53
2018-05-03T00:55:54.403Z,17.47
2018-05-03T00:58:24.334Z,16.67
2018-05-03T01:00:54.432Z,16.90
2018-05-03T01:03:24.636Z,17.07
2018-05-03T01:05:54.526Z,18.60
2018-05-03T01:08:24.784Z,17.40
2018-05-03T01:10:55.079Z,17.80
2018-05-03T01:13:25.012Z,16.50
2018-05-03T01:15:54.826Z,17.93
2018-05-03T01:18:24.900Z,16.70
2018-05-03T01:20:55.359Z,17.87
2018-05-03T01:23:25.708Z,18.63
2018-05-03T01:25:55.861Z,20.30
2018-05-03T01:28:26.974Z,18.70
2018-05-03T01:30:57.509Z,17.87
2018-05-03T01:33:27.784Z,18.33
2018-05-03T01:36:09.471Z,19.40
2018-05-03T01:38:39.575Z,18.27
2018-05-03T01:41:09.802Z,18.63
2018-05-03T01:43:39.703Z,17.33
2018-05-03T01:46:09.953Z,16.97
2018-05-03T01:48:39.981Z,17.53
2018-05-03T01:51:10.300Z,17.17
2018-05-03T01:53:40.545Z,16.90
2018-05-03T01:56:10.507Z,16.47
2018-05-03T01:58:41.228Z,17.03
2018-05-03T02:01:11.477Z,17.73
2018-05-03T02:03:41.691Z,16.77
2018-05-03T02:06:11.856Z,17.70
2018-05-03T02:08:42.032Z,17.40
2018-05-03T02:11:12.225Z,16.57
2018-05-03T02:13:42.284Z,16.23
2018-05-03T02:16:12.520Z,17.00
2018-05-03T02:18:42.740Z,18.40
2018-05-03T02:21:13.029Z,18.87
2018-05-03T02:23:43.289Z,17.83
2018-05-03T02:26:13.670Z,17.43
2018-05-03T02:28:43.888Z,17.10
2018-05-03T02:31:14.077Z,17.00
2018-05-03T02:33:44.239Z,16.23
2018-05-03T02:36:14.047Z,17.53
2018-05-03T02:38:44.041Z,16.80
2018-05-03T02:41:14.251Z,17.80
2018-05-03T02:43:44.827Z,21.27
2018-05-03T02:46:14.966Z,20.63
2018-05-03T02:48:44.876Z,28.23
2018-05-03T02:51:14.997Z,23.17
2018-05-03T02:53:44.821Z,22.90
2018-05-03T02:56:14.923Z,20.27
2018-05-03T02:58:56.627Z,18.37
2018-05-03T03:01:43.771Z,16.57
2018-05-03T03:04:31.172Z,19.73
2018-05-03T03:07:32.631Z,21.27
2018-05-03T03:10:32.575Z,25.57
2018-05-03T03:13:34.550Z,27.07
2018-05-03T03:16:21.929Z,28.80
2018-05-03T03:19:23.784Z,29.83
2018-05-03T03:22:10.996Z,29.03
2018-05-03T03:24:52.396Z,21.37
2018-05-03T03:27:39.642Z,22.40
2018-05-03T03:30:21.105Z,22.07
2018-05-03T03:33:02.859Z,21.93
2018-05-03T03:35:55.485Z,20.00
2018-05-03T03:38:36.874Z,19.77
2018-05-03T03:41:18.314Z,20.53
2018-05-03T03:43:59.768Z,20.63
2018-05-03T03:46:29.605Z,18.93
2018-05-03T03:48:59.425Z,18.97
2018-05-03T03:51:29.193Z,19.20
2018-05-03T03:53:58.977Z,17.30
2018-05-03T03:56:28.769Z,20.03
2018-05-03T03:58:58.575Z,17.07
2018-05-03T04:01:28.383Z,17.33
2018-05-03T04:03:58.176Z,17.90
2018-05-03T04:06:27.919Z,18.17
2018-05-03T04:08:57.684Z,20.03
2018-05-03T04:11:27.440Z,18.10
2018-05-03T04:13:57.267Z,19.73
2018-05-03T04:16:27.013Z,18.50
2018-05-03T04:19:08.597Z,18.43
2018-05-03T04:21:50.016Z,17.43
2018-05-03T04:24:31.690Z,18.13
2018-05-03T04:27:01.507Z,18.33
2018-05-03T04:29:31.379Z,19.23
2018-05-03T04:32:01.984Z,19.60
2018-05-03T04:34:31.862Z,18.00
2018-05-03T04:37:01.534Z,18.77
2018-05-03T04:39:31.349Z,18.63
2018-05-03T04:42:01.174Z,19.93
2018-05-03T04:44:31.241Z,20.43
2018-05-03T04:47:01.059Z,19.70
2018-05-03T04:49:30.829Z,18.77
2018-05-03T04:52:00.635Z,18.90
2018-05-03T04:54:30.440Z,19.60
2018-05-03T04:57:00.236Z,18.53
2018-05-03T04:59:29.997Z,20.97
2018-05-03T05:01:59.866Z,21.77
2018-05-03T05:04:29.680Z,20.43
2018-05-03T05:06:59.547Z,19.27
2018-05-03T05:09:29.358Z,18.63
2018-05-03T05:11:59.131Z,21.47
2018-05-03T05:14:28.913Z,18.97
2018-05-03T05:16:58.702Z,21.03
2018-05-03T05:19:28.408Z,21.40
2018-05-03T05:21:58.266Z,22.00
2018-05-03T05:24:27.988Z,19.93
2018-05-03T05:26:57.919Z,22.43
2018-05-03T05:29:28.666Z,22.67
2018-05-03T05:31:58.529Z,23.73
2018-05-03T05:34:28.340Z,22.00
2018-05-03T05:36:58.141Z,23.90
2018-05-03T05:39:27.877Z,24.37
2018-05-03T05:41:57.658Z,23.13
2018-05-03T05:44:27.383Z,23.63
2018-05-03T05:46:57.166Z,22.63
2018-05-03T05:49:27.019Z,22.43
2018-05-03T05:51:56.795Z,22.57
2018-05-03T05:54:26.611Z,24.67
2018-05-03T05:56:56.482Z,22.83
2018-05-03T05:59:26.272Z,25.93
2018-05-03T06:01:56.139Z,25.90
2018-05-03T06:04:25.935Z,24.67
2018-05-03T06:06:55.677Z,24.13
2018-05-03T06:09:25.478Z,26.47
2018-05-03T06:11:55.186Z,26.20
2018-05-03T06:14:24.935Z,26.50
2018-05-03T06:16:54.786Z,27.10
2018-05-03T06:19:24.524Z,28.57
2018-05-03T06:21:54.352Z,29.50
2018-05-03T06:24:24.197Z,25.90
2018-05-03T06:26:53.946Z,27.63
2018-05-03T06:29:23.776Z,28.37
2018-05-03T06:31:53.568Z,28.47
2018-05-03T06:34:23.342Z,28.87
2018-05-03T06:36:53.127Z,30.03
2018-05-03T06:39:22.876Z,30.47
2018-05-03T06:41:52.676Z,31.50
2018-05-03T06:44:22.451Z,32.60
2018-05-03T06:46:52.281Z,34.13
2018-05-03T06:49:22.044Z,32.93
2018-05-03T06:51:52.684Z,33.07
2018-05-03T06:54:22.482Z,32.10
2018-05-03T06:56:52.337Z,33.67
2018-05-03T06:59:22.089Z,32.93
2018-05-03T07:01:51.917Z,34.17
2018-05-03T07:04:21.731Z,33.73
2018-05-03T07:06:51.557Z,34.17
2018-05-03T07:09:21.300Z,35.37
2018-05-03T07:11:51.138Z,34.03
2018-05-03T07:14:20.988Z,31.90
2018-05-03T07:16:50.820Z,31.03
2018-05-03T07:19:20.590Z,32.43
2018-05-03T07:21:50.381Z,33.70
2018-05-03T07:24:20.123Z,33.30
2018-05-03T07:26:50.069Z,34.50
2018-05-03T07:29:20.046Z,35.47
2018-05-03T07:31:50.383Z,34.57
2018-05-03T07:34:20.194Z,34.47
2018-05-03T07:36:50.011Z,35.53
2018-05-03T07:39:19.762Z,31.83
2018-05-03T07:41:49.582Z,29.87
2018-05-03T07:44:19.433Z,30.67
2018-05-03T07:46:49.256Z,30.30
2018-05-03T07:49:19.079Z,30.50
2018-05-03T07:51:48.846Z,32.07
2018-05-03T07:54:18.609Z,32.03
2018-05-03T07:56:48.429Z,30.87
2018-05-03T07:59:18.132Z,31.20
2018-05-03T08:01:47.925Z,29.57
2018-05-03T08:04:17.893Z,29.07
2018-05-03T08:06:47.711Z,29.30
2018-05-03T08:09:17.467Z,28.43
2018-05-03T08:11:47.289Z,29.20
2018-05-03T08:14:17.859Z,29.13
2018-05-03T08:16:47.642Z,30.67
2018-05-03T08:19:17.426Z,30.33
2018-05-03T08:21:47.285Z,30.03
2018-05-03T08:24:17.138Z,30.67
2018-05-03T08:26:46.979Z,29.40
2018-05-03T08:29:16.867Z,29.57
2018-05-03T08:31:47.128Z,30.03
2018-05-03T08:34:17.895Z,31.10
2018-05-03T08:36:47.742Z,31.93
2018-05-03T08:39:17.543Z,29.57
2018-05-03T08:41:48.321Z,30.43
2018-05-03T08:44:18.071Z,29.80
2018-05-03T08:46:48.477Z,29.53
2018-05-03T08:49:18.294Z,30.93
2018-05-03T08:51:49.865Z,30.90
2018-05-03T08:54:19.647Z,31.27
2018-05-03T08:56:49.442Z,30.57
2018-05-03T08:59:19.180Z,29.53
2018-05-03T09:01:48.975Z,27.43
2018-05-03T09:04:18.772Z,25.63
2018-05-03T09:06:48.535Z,25.60
2018-05-03T09:09:18.262Z,25.27
2018-05-03T09:11:48.051Z,24.67
2018-05-03T09:14:17.813Z,24.90
2018-05-03T09:16:47.625Z,24.67
2018-05-03T09:19:17.383Z,25.30
2018-05-03T09:21:47.180Z,24.27
2018-05-03T09:24:16.945Z,25.10
2018-05-03T09:26:46.788Z,24.07
2018-05-03T09:29:16.625Z,23.93
2018-05-03T09:31:46.381Z,23.50
2018-05-03T09:34:16.139Z,23.70
2018-05-03T09:36:45.920Z,23.37
2018-05-03T09:39:15.715Z,23.00
2018-05-03T09:41:45.515Z,23.63
2018-05-03T09:44:15.294Z,24.07
2018-05-03T09:46:45.122Z,23.10
2018-05-03T09:49:14.932Z,24.53
2018-05-03T09:51:44.760Z,24.07
2018-05-03T09:54:14.569Z,23.87
2018-05-03T09:56:44.404Z,23.10
2018-05-03T09:59:14.115Z,21.87
2018-05-03T10:01:43.933Z,21.93
2018-05-03T10:04:13.732Z,21.37
2018-05-03T10:06:43.552Z,19.87
2018-05-03T10:09:13.316Z,21.53
2018-05-03T10:11:43.047Z,20.80
2018-05-03T10:14:12.903Z,20.43
2018-05-03T10:16:42.623Z,19.23
2018-05-03T10:19:12.417Z,19.03
2018-05-03T10:21:42.142Z,20.03
2018-05-03T10:24:11.946Z,19.00
2018-05-03T10:26:41.826Z,16.57
2018-05-03T10:29:11.593Z,18.17
2018-05-03T10:31:41.336Z,19.10
2018-05-03T10:34:11.103Z,19.80
2018-05-03T10:36:40.860Z,19.47
2018-05-03T10:39:10.636Z,18.43
2018-05-03T10:41:40.411Z,19.13
2018-05-03T10:44:10.204Z,22.47
2018-05-03T10:46:39.981Z,22.60
2018-05-03T10:49:09.738Z,22.63
2018-05-03T10:51:39.537Z,19.43
2018-05-03T10:54:09.303Z,21.37
2018-05-03T10:56:39.627Z,20.03
2018-05-03T10:59:09.377Z,19.93
2018-05-03T11:01:39.187Z,19.47
2018-05-03T11:04:09.035Z,19.73
2018-05-03T11:06:39.005Z,15.90
2018-05-03T11:09:08.765Z,16.60
2018-05-03T11:11:38.584Z,17.80
2018-05-03T11:14:08.445Z,17.90
2018-05-03T11:16:38.236Z,21.27
2018-05-03T11:19:08.043Z,19.47
2018-05-03T11:21:37.755Z,18.73
2018-05-03T11:24:07.490Z,17.93
2018-05-03T11:26:37.272Z,18.27
2018-05-03T11:29:07.026Z,18.93
2018-05-03T11:31:36.872Z,18.33
2018-05-03T11:34:06.697Z,19.17
2018-05-03T11:36:37.090Z,18.70
2018-05-03T11:39:06.893Z,19.27
2018-05-03T11:41:36.644Z,19.50
2018-05-03T11:44:06.421Z,19.43
2018-05-03T11:46:36.259Z,18.87
2018-05-03T11:49:06.038Z,20.00
2018-05-03T11:51:35.829Z,18.70
2018-05-03T11:54:05.651Z,17.97
2018-05-03T11:56:35.433Z,18.93
2018-05-03T11:59:05.203Z,22.93
2018-05-03T12:01:34.964Z,20.63
2018-05-03T12:04:04.805Z,20.03
2018-05-03T12:06:34.599Z,21.23
2018-05-03T12:09:04.473Z,20.70
2018-05-03T12:11:34.270Z,21.33
2018-05-03T12:14:04.094Z,21.90
2018-05-03T12:16:33.921Z,22.87
2018-05-03T12:19:03.662Z,20.50
2018-05-03T12:21:33.439Z,20.67
2018-05-03T12:24:03.225Z,20.57
2018-05-03T12:26:33.273Z,19.43
2018-05-03T12:29:03.143Z,20.60
2018-05-03T12:31:33.751Z,22.20
2018-05-03T12:34:09.077Z,22.63
2018-05-03T12:36:38.852Z,21.13
2018-05-03T12:39:08.701Z,21.27
2018-05-03T12:41:38.483Z,20.43
2018-05-03T12:44:08.342Z,19.77
2018-05-03T12:46:48.325Z,19.80
2018-05-03T12:49:42.447Z,20.13
2018-05-03T12:52:15.683Z,20.87
2018-05-03T12:54:45.702Z,21.70
2018-05-03T12:57:15.633Z,21.23
2018-05-03T12:59:45.410Z,21.50
2018-05-03T13:02:15.293Z,22.63
2018-05-03T13:04:46.736Z,22.83
2018-05-03T13:07:22.388Z,23.83
2018-05-03T13:15:40.486Z,23.23
2018-05-03T13:18:10.544Z,22.60
2018-05-03T13:20:41.383Z,23.53
2018-05-03T13:23:11.214Z,23.17
2018-05-03T13:25:56.067Z,24.93
2018-05-03T13:28:25.873Z,24.30
2018-05-03T13:30:55.654Z,23.53
2018-05-03T13:33:25.569Z,23.87
2018-05-03T13:35:55.363Z,23.67
2018-05-03T13:38:25.115Z,23.27
2018-05-03T13:40:54.960Z,23.90
2018-05-03T13:43:24.791Z,25.70
2018-05-03T13:45:54.645Z,24.80
2018-05-03T13:48:24.476Z,25.77
2018-05-03T13:50:54.216Z,24.07
2018-05-03T13:53:24.056Z,24.50
2018-05-03T13:55:53.795Z,23.40
2018-05-03T13:58:23.566Z,23.50
2018-05-03T14:00:53.370Z,24.60
2018-05-03T14:03:23.175Z,22.40
2018-05-03T14:05:53.008Z,22.80
2018-05-03T14:08:22.829Z,22.70
2018-05-03T14:10:52.633Z,22.87
2018-05-03T14:13:22.433Z,22.20
2018-05-03T14:15:52.267Z,20.27
2018-05-03T14:18:22.023Z,20.23
2018-05-03T14:20:51.831Z,19.83
2018-05-03T14:23:24.357Z,21.17
2018-05-03T14:25:55.886Z,20.63
2018-05-03T14:28:31.897Z,20.70
2018-05-03T14:31:01.695Z,21.43
2018-05-03T14:33:31.524Z,21.10
2018-05-03T14:36:01.351Z,20.10
2018-05-03T14:38:31.076Z,19.63
2018-05-03T14:41:00.814Z,19.80
2018-05-03T14:43:30.616Z,20.37
2018-05-03T14:46:00.456Z,20.97
2018-05-03T14:48:30.233Z,20.87
2018-05-03T14:51:00.060Z,21.27
2018-05-03T14:53:29.968Z,20.53
2018-05-03T14:55:59.695Z,20.57
2018-05-03T14:58:29.448Z,20.87
2018-05-03T15:00:59.240Z,20.40
2018-05-03T15:03:28.992Z,19.77
2018-05-03T15:05:58.842Z,20.53
2018-05-03T15:08:28.614Z,18.80
2018-05-03T15:10:59.080Z,18.20
2018-05-03T15:16:05.035Z,17.37
2018-05-03T15:18:34.795Z,18.10
2018-05-03T15:21:04.526Z,17.83
2018-05-03T15:23:34.369Z,18.03
2018-05-03T15:26:04.140Z,17.33
2018-05-03T15:28:33.935Z,17.33
2018-05-03T15:31:03.726Z,17.17
2018-05-03T15:33:33.542Z,16.33
2018-05-03T15:36:03.820Z,16.07
2018-05-03T15:38:33.595Z,15.17
2018-05-03T15:41:03.366Z,15.67
2018-05-03T15:43:33.105Z,15.97
2018-05-03T15:46:02.952Z,15.30
2018-05-03T15:48:32.758Z,15.03
2018-05-03T15:51:02.577Z,16.23
2018-05-03T15:53:32.407Z,16.57
2018-05-03T15:56:02.190Z,15.60
2018-05-03T15:58:31.981Z,16.47
2018-05-03T16:01:01.753Z,16.23
2018-05-03T16:03:31.559Z,16.43
2018-05-03T16:06:01.381Z,15.70
2018-05-03T16:08:31.224Z,15.90
2018-05-03T16:11:02.078Z,15.87
2018-05-03T16:13:31.935Z,15.57
2018-05-03T16:16:01.789Z,15.07
2018-05-03T16:18:31.589Z,15.37
2018-05-03T16:21:01.383Z,15.43
2018-05-03T16:23:31.277Z,15.17
2018-05-03T16:26:01.100Z,15.00
2018-05-03T16:28:30.869Z,15.37
2018-05-03T16:31:00.688Z,14.77
2018-05-03T16:33:30.472Z,15.30
2018-05-03T16:36:00.283Z,15.50
2018-05-03T16:38:30.805Z,14.47
2018-05-03T16:41:00.608Z,13.70
2018-05-03T16:43:30.401Z,13.43
2018-05-03T16:46:00.225Z,14.53
2018-05-03T16:48:29.974Z,15.40
2018-05-03T16:50:59.802Z,14.10
2018-05-03T16:53:29.613Z,13.37
2018-05-03T16:55:59.437Z,14.00
2018-05-03T16:58:29.195Z,13.10
2018-05-03T17:00:58.951Z,13.83
2018-05-03T17:03:28.751Z,13.27
2018-05-03T17:05:58.532Z,13.13
2018-05-03T17:08:28.295Z,12.40
2018-05-03T17:10:58.086Z,13.07
2018-05-03T17:13:27.858Z,13.20
2018-05-03T17:15:57.695Z,13.87
2018-05-03T17:18:27.454Z,13.90
2018-05-03T17:20:57.187Z,13.73
2018-05-03T17:23:27.000Z,15.07
2018-05-03T17:25:56.803Z,13.47
2018-05-03T17:28:26.605Z,13.87
2018-05-03T17:30:56.381Z,13.50
2018-05-03T17:33:26.149Z,14.00
2018-05-03T17:35:55.916Z,15.20
2018-05-03T17:38:25.646Z,14.23
2018-05-03T17:40:55.406Z,14.17
2018-05-03T17:43:25.168Z,13.73
2018-05-03T17:45:55.041Z,14.40
2018-05-03T17:48:24.830Z,14.67
2018-05-03T17:50:54.682Z,14.67
2018-05-03T17:53:24.482Z,14.20
2018-05-03T17:55:54.322Z,15.03
2018-05-03T17:58:24.048Z,14.87
2018-05-03T18:00:53.798Z,14.70
2018-05-03T18:03:23.586Z,14.20
2018-05-03T18:05:53.368Z,14.13
2018-05-03T18:08:23.086Z,14.27
2018-05-03T18:10:52.919Z,14.40
2018-05-03T18:13:22.608Z,14.43
2018-05-03T18:15:52.420Z,14.80
2018-05-03T18:18:22.163Z,14.10
2018-05-03T18:20:51.935Z,15.17
2018-05-03T18:23:21.898Z,14.83
2018-05-03T18:25:51.809Z,14.50
2018-05-03T18:28:21.709Z,15.60
2018-05-03T18:30:51.732Z,14.93
2018-05-03T18:33:21.840Z,15.83
2018-05-03T18:35:51.864Z,15.33
2018-05-03T18:38:21.811Z,15.63
2018-05-03T18:40:51.844Z,15.37
2018-05-03T18:43:21.640Z,14.43
2018-05-03T18:45:51.414Z,15.77
2018-05-03T18:48:21.242Z,15.40
2018-05-03T18:50:51.085Z,15.57
2018-05-03T18:53:20.953Z,15.53
2018-05-03T18:55:50.746Z,14.90
2018-05-03T18:58:20.704Z,15.33
2018-05-03T19:00:50.534Z,15.10
2018-05-03T19:03:20.385Z,15.57
2018-05-03T19:05:50.226Z,15.73
2018-05-03T19:08:20.053Z,15.43
2018-05-03T19:10:49.962Z,16.47
2018-05-03T19:20:07.583Z,14.50
2018-05-03T19:22:37.700Z,16.23
2018-05-03T19:25:08.809Z,16.07
2018-05-03T19:27:38.581Z,16.07
2018-05-03T19:30:08.384Z,15.53
2018-05-03T19:32:38.172Z,16.13
2018-05-03T19:35:08.805Z,17.17
2018-05-03T19:37:39.156Z,17.70
2018-05-03T19:40:09.748Z,17.13
2018-05-03T19:42:40.396Z,16.87
2018-05-03T19:45:12.012Z,16.37
2018-05-03T19:47:42.532Z,16.17
2018-05-03T19:50:12.829Z,16.13
2018-05-03T19:52:43.294Z,16.27
2018-05-03T19:55:13.898Z,17.47
2018-05-03T19:57:44.361Z,17.00
2018-05-03T20:00:14.759Z,18.37
2018-05-03T20:02:44.984Z,18.17
2018-05-03T20:05:15.456Z,18.33
2018-05-03T20:07:45.972Z,17.80
2018-05-03T20:10:16.526Z,17.87
2018-05-03T20:12:47.633Z,16.83
2018-05-03T20:15:19.340Z,17.67
2018-05-03T20:17:51.245Z,18.20
2018-05-03T20:20:21.665Z,17.60
2018-05-03T20:22:51.793Z,18.07
2018-05-03T20:25:22.012Z,17.53
2018-05-03T20:27:52.694Z,18.80
2018-05-03T20:30:22.808Z,18.23
2018-05-03T20:32:53.269Z,18.53
2018-05-03T20:35:23.600Z,18.67
2018-05-03T20:44:41.488Z,19.47
2018-05-03T20:47:12.799Z,19.93
2018-05-03T20:49:42.615Z,20.63
2018-05-03T20:52:12.768Z,20.43
2018-05-03T20:54:43.473Z,19.90
2018-05-03T20:57:13.585Z,19.47
2018-05-03T20:59:43.841Z,19.27
2018-05-03T21:02:14.015Z,20.20
2018-05-03T21:04:44.046Z,20.03
2018-05-03T21:14:02.129Z,20.30
2018-05-03T21:16:31.915Z,20.20
2018-05-03T21:19:02.156Z,21.40
2018-05-03T21:21:32.229Z,21.70
2018-05-03T21:24:02.379Z,21.87
2018-05-03T21:26:32.126Z,22.43
2018-05-03T21:29:02.366Z,23.03
2018-05-03T21:31:32.795Z,21.73
2018-05-03T21:34:02.585Z,23.10
2018-05-03T21:36:32.459Z,22.63
2018-05-03T21:39:02.724Z,21.93
2018-05-03T21:41:32.863Z,21.57
2018-05-03T21:44:02.654Z,22.10
2018-05-03T21:46:32.613Z,21.13
2018-05-03T21:49:02.828Z,21.50
2018-05-03T21:51:32.843Z,21.30
2018-05-03T21:54:03.311Z,21.33
2018-05-03T21:56:34.144Z,22.33
2018-05-03T21:59:04.240Z,20.63
2018-05-03T22:01:34.130Z,22.43
2018-05-03T22:04:04.489Z,21.97
2018-05-03T22:06:34.673Z,22.23
2018-05-03T22:09:04.549Z,22.60
2018-05-03T22:11:34.730Z,21.67
2018-05-03T22:14:04.529Z,22.63
2018-05-03T22:16:34.358Z,23.90
2018-05-03T22:19:04.519Z,23.10
2018-05-03T22:21:34.649Z,23.23
2018-05-03T22:24:04.965Z,23.43
2018-05-03T22:26:34.783Z,22.83
2018-05-03T22:29:05.170Z,23.23
2018-05-03T22:31:35.300Z,22.97
2018-05-03T22:34:05.614Z,22.27
2018-05-03T22:36:35.763Z,22.83
2018-05-03T22:39:05.583Z,21.97
2018-05-03T22:41:36.402Z,22.40
2018-05-03T22:44:06.862Z,22.10
2018-05-03T22:46:37.112Z,21.63
2018-05-03T22:49:07.582Z,20.97
2018-05-03T22:51:37.399Z,21.57
2018-05-03T22:54:07.607Z,22.67
2018-05-03T22:56:39.460Z,21.93
2018-05-03T22:59:10.604Z,21.30
2018-05-03T23:01:40.374Z,23.13
2018-05-03T23:04:10.797Z,22.63
2018-05-03T23:06:41.041Z,21.83
2018-05-03T23:09:11.359Z,23.23
2018-05-03T23:11:41.107Z,22.97
2018-05-03T23:14:10.876Z,21.77
2018-05-03T23:16:41.061Z,22.77
2018-05-03T23:19:11.240Z,23.33
2018-05-03T23:21:41.659Z,22.70
2018-05-03T23:24:11.485Z,22.37
2018-05-03T23:26:41.847Z,22.97
2018-05-03T23:29:12.175Z,22.97
2018-05-03T23:31:42.556Z,24.50
2018-05-03T23:34:12.573Z,23.00
2018-05-03T23:36:42.642Z,22.33
2018-05-03T23:39:12.689Z,23.53
2018-05-03T23:41:42.640Z,25.67
2018-05-03T23:44:12.685Z,26.20
2018-05-03T23:46:43.181Z,25.13
2018-05-03T23:49:13.368Z,25.63
2018-05-03T23:51:43.474Z,24.90
2018-05-03T23:54:13.564Z,24.37
2018-05-03T23:56:43.721Z,24.83
2018-05-03T23:59:13.834Z,23.87
